This is the latest recevied weather packets stored in our database for station/object OK1FCB-1. If no packets are shown the sender has not sent any weather packets the latest 10 day(s).
| Time | Temp. | Humidity | Pressure | Rain* | Wind** | Luminosity | Snow |
|---|---|---|---|---|---|---|---|
| 1777814911 | 35.56° C | 22% | 1018.5 hPa | - | - | - | - |
| 1777814017 | 35° C | 22% | 1018.9 hPa | - | - | - | - |
| 1777814012 | 35° C | 22% | 1018.9 hPa | - | - | - | - |
| 1777811315 | 33.89° C | 21% | 1019.4 hPa | - | - | - | - |
| 1777809518 | 33.33° C | 22% | 1019.7 hPa | - | - | - | - |
| 1777805032 | 31.11° C | 25% | 1020.6 hPa | - | - | - | - |
| 1777805026 | 31.11° C | 25% | 1020.6 hPa | - | - | - | - |
| 1777800533 | 30° C | 27% | 1021.7 hPa | - | - | - | - |
| 1777799640 | 28.33° C | 27% | 1021.8 hPa | - | - | - | - |
| 1777799634 | 28.33° C | 27% | 1021.8 hPa | - | - | - | - |
| 1777797837 | 28.33° C | 27% | 1022 hPa | - | - | - | - |
| 1777796944 | 28.89° C | 28% | 1022 hPa | - | - | - | - |
| 1777794249 | 26.11° C | 30% | 1022.3 hPa | - | - | - | - |
| 1777793350 | 25.56° C | 31% | 1022.3 hPa | - | - | - | - |
| 1777792446 | 24.44° C | 33% | 1022.3 hPa | - | - | - | - |
| 1777791547 | 23.89° C | 34% | 1022.4 hPa | - | - | - | - |
| 1777790648 | 22.78° C | 36% | 1022.4 hPa | - | - | - | - |
| 1777784351 | 10° C | 61% | 1022.3 hPa | - | - | - | - |
| 1777782552 | 7.22° C | 65% | 1022.2 hPa | - | - | - | - |
| 1777781652 | 6.11° C | 67% | 1022.2 hPa | - | - | - | - |
| 1777780754 | 5° C | 68% | 1022.1 hPa | - | - | - | - |
| 1777778957 | 5° C | 68% | 1022 hPa | - | - | - | - |
| 1777772675 | 5.56° C | 67% | 1022.3 hPa | - | - | - | - |
| 1777771777 | 6.11° C | 65% | 1022.2 hPa | - | - | - | - |
| 1777769091 | 6.67° C | 63% | 1022.3 hPa | - | - | - | - |
* Rain since midnight (hover to see other rain measurements)
** Current wind speed in m/s (hover to see current wind gust speed)